Time;durP1;ratioP1;P1;durP2;ratioP2;P2;SDS_P1;SDS_P2;PMS_P1;PMS_P2;Temp;Humidity;BMP_temperature;BMP_pressure;BME280_temperature;BME280_humidity;BME280_pressure;Samples;Min_cycle;Max_cycle;Signal;HPM_P1;HPM_P2
2022/12/14 00:01:35;;;;;;;;;;;-4.40;99.90;;;;;;5123772;27;19925;-69
2022/12/14 00:04:00;;;;;;;;;;;-4.40;99.90;;;;;;5125460;27;20010;-69
2022/12/14 00:06:27;;;;;;;;;;;-4.40;99.90;;;;;;5130279;28;19923;-68
2022/12/14 00:08:54;;;;;;;;;;;-4.40;99.90;;;;;;5126260;27;19920;-69
2022/12/14 00:11:21;;;;;;;;;;;-4.40;99.90;;;;;;5107712;27;19931;-68
2022/12/14 00:13:49;;;;;;;;;;;-4.40;99.90;;;;;;5124151;27;19980;-69
2022/12/14 00:16:16;;;;;;;;;;;-4.50;99.90;;;;;;5131366;27;20003;-69
2022/12/14 00:18:43;;;;;;;;;;;-4.50;99.90;;;;;;5135146;27;20309;-69
2022/12/14 00:21:10;;;;;;;;;;;-4.40;99.90;;;;;;5127113;27;19920;-69
2022/12/14 00:23:36;;;;;;;;;;;-4.50;99.90;;;;;;5130855;27;19919;-69
2022/12/14 00:26:13;;;;;;;;;;;-4.50;99.90;;;;;;5125803;27;19926;-69
2022/12/14 00:28:39;;;;;;;;;;;-4.50;99.90;;;;;;5123325;27;19930;-69
2022/12/14 00:31:05;;;;;;;;;;;-4.60;99.90;;;;;;5141238;27;19924;-69
2022/12/14 00:33:31;;;;;;;;;;;-4.50;99.90;;;;;;5129446;27;19927;-69
2022/12/14 00:35:57;;;;;;;;;;;-4.50;99.90;;;;;;5127534;27;19923;-69
2022/12/14 00:38:22;;;;;;;;;;;-4.60;99.90;;;;;;5126352;27;19920;-69
2022/12/14 00:40:48;;;;;;;;;;;-4.60;99.90;;;;;;5132319;27;20026;-69
2022/12/14 00:43:14;;;;;;;;;;;-4.60;99.90;;;;;;5127869;27;19923;-69
2022/12/14 00:45:42;;;;;;;;;;;-4.60;99.90;;;;;;5117994;27;20425;-69
2022/12/14 00:48:07;;;;;;;;;;;-4.60;99.90;;;;;;5128787;27;19942;-69
2022/12/14 00:50:33;;;;;;;;;;;-4.60;99.90;;;;;;5130954;27;19923;-69
2022/12/14 00:52:58;;;;;;;;;;;-4.60;99.90;;;;;;5130631;27;19919;-69
2022/12/14 00:55:24;;;;;;;;;;;-4.60;99.90;;;;;;5126581;27;20022;-69
2022/12/14 00:57:50;;;;;;;;;;;-4.70;99.90;;;;;;5113321;27;20346;-69
2022/12/14 01:00:16;;;;;;;;;;;-4.70;99.90;;;;;;5127544;27;19940;-69
2022/12/14 01:02:41;;;;;;;;;;;-4.80;99.90;;;;;;5129085;27;19919;-69
2022/12/14 01:05:07;;;;;;;;;;;-4.80;99.90;;;;;;5131392;27;19931;-69
2022/12/14 01:07:32;;;;;;;;;;;-4.70;99.90;;;;;;5126040;27;20006;-69
2022/12/14 01:09:58;;;;;;;;;;;-4.80;99.90;;;;;;5116677;27;19934;-69
2022/12/14 01:12:23;;;;;;;;;;;-4.80;99.90;;;;;;5129667;27;20320;-69
2022/12/14 01:14:49;;;;;;;;;;;-4.90;99.90;;;;;;5129440;27;19923;-69
2022/12/14 01:17:14;;;;;;;;;;;-5.00;99.90;;;;;;5115560;27;19980;-69
2022/12/14 01:19:40;;;;;;;;;;;-5.00;99.90;;;;;;5127916;27;19978;-69
2022/12/14 01:22:05;;;;;;;;;;;-5.00;99.90;;;;;;5125691;27;19923;-69
2022/12/14 01:24:31;;;;;;;;;;;-5.00;99.90;;;;;;5123861;27;19927;-69
2022/12/14 01:26:56;;;;;;;;;;;-5.00;99.90;;;;;;5126109;27;20398;-69
2022/12/14 01:29:22;;;;;;;;;;;-5.00;99.90;;;;;;5114304;27;19920;-69
2022/12/14 01:31:47;;;;;;;;;;;-5.00;99.90;;;;;;5118392;27;19923;-69
2022/12/14 01:34:13;;;;;;;;;;;-5.10;99.90;;;;;;5122812;27;19931;-69
2022/12/14 01:36:38;;;;;;;;;;;-5.00;99.90;;;;;;5120035;27;19966;-69
2022/12/14 01:39:05;;;;;;;;;;;-5.00;99.90;;;;;;5123369;27;20370;-69
2022/12/14 01:41:35;;;;;;;;;;;-5.00;99.90;;;;;;5124090;27;19942;-69
2022/12/14 01:44:03;;;;;;;;;;;-5.10;99.90;;;;;;5129107;27;19926;-69
2022/12/14 01:46:34;;;;;;;;;;;-5.00;99.90;;;;;;5126065;27;19924;-69
2022/12/14 01:49:19;;;;;;;;;;;-5.10;99.90;;;;;;5123917;27;19973;-69
2022/12/14 01:51:47;;;;;;;;;;;-5.10;99.90;;;;;;5119805;27;19981;-69
2022/12/14 01:54:13;;;;;;;;;;;-5.10;99.90;;;;;;5122900;27;19938;-69
2022/12/14 01:56:41;;;;;;;;;;;-5.10;99.90;;;;;;5125918;27;19924;-69
2022/12/14 01:59:09;;;;;;;;;;;-5.10;99.90;;;;;;5121584;27;19919;-69
2022/12/14 02:01:35;;;;;;;;;;;-5.20;99.90;;;;;;5120325;27;19984;-69
2022/12/14 02:04:00;;;;;;;;;;;-5.30;99.90;;;;;;5123791;27;20373;-69
2022/12/14 02:06:33;;;;;;;;;;;-5.40;99.90;;;;;;5123106;27;19927;-69
2022/12/14 02:08:59;;;;;;;;;;;-5.40;99.90;;;;;;5123692;27;20207;-68
2022/12/14 02:11:43;;;;;;;;;;;-5.40;99.90;;;;;;5120287;27;19927;-69
2022/12/14 02:14:08;;;;;;;;;;;-5.40;99.90;;;;;;5122734;27;19967;-69
2022/12/14 02:16:34;;;;;;;;;;;-5.50;99.90;;;;;;5120276;27;19974;-69
2022/12/14 02:18:59;;;;;;;;;;;-5.50;99.90;;;;;;5125605;27;19927;-69
2022/12/14 02:21:40;;;;;;;;;;;-5.60;99.90;;;;;;5117955;27;19919;-69
2022/12/14 02:24:12;;;;;;;;;;;-5.60;99.90;;;;;;5124261;27;19919;-69
2022/12/14 02:26:37;;;;;;;;;;;-5.60;99.90;;;;;;5123556;27;20018;-69
2022/12/14 02:29:03;;;;;;;;;;;-5.60;99.90;;;;;;5123361;27;20433;-69
2022/12/14 02:31:40;;;;;;;;;;;-5.60;99.90;;;;;;5107107;27;19927;-69
2022/12/14 02:34:18;;;;;;;;;;;-5.60;99.90;;;;;;5103523;27;19923;-69
2022/12/14 02:36:48;;;;;;;;;;;-5.60;99.90;;;;;;5116721;27;20362;-69
2022/12/14 02:39:40;;;;;;;;;;;-5.70;99.90;;;;;;5116829;27;20055;-69
2022/12/14 02:42:12;;;;;;;;;;;-5.70;99.90;;;;;;5085970;27;19970;-68
2022/12/14 02:44:44;;;;;;;;;;;-5.80;99.90;;;;;;5120884;27;20281;-69
2022/12/14 02:47:18;;;;;;;;;;;-5.70;99.90;;;;;;5120345;27;19927;-69
2022/12/14 02:49:47;;;;;;;;;;;-5.70;99.90;;;;;;5120847;27;19946;-69
2022/12/14 02:52:19;;;;;;;;;;;-5.70;99.90;;;;;;5100558;27;19939;-69
2022/12/14 02:54:54;;;;;;;;;;;-5.70;99.90;;;;;;5123716;27;19924;-68
2022/12/14 02:57:21;;;;;;;;;;;-5.60;99.90;;;;;;5103969;27;19924;-68
2022/12/14 02:59:52;;;;;;;;;;;-5.70;99.90;;;;;;5122178;27;19927;-68
2022/12/14 03:02:18;;;;;;;;;;;-5.70;99.90;;;;;;5115357;27;20010;-68
2022/12/14 03:04:47;;;;;;;;;;;-5.70;99.90;;;;;;5097945;27;19930;-68
2022/12/14 03:07:35;;;;;;;;;;;-5.80;99.90;;;;;;5118961;27;19923;-68
2022/12/14 03:10:14;;;;;;;;;;;-5.80;99.90;;;;;;5118767;27;19923;-68
2022/12/14 03:12:41;;;;;;;;;;;-5.90;99.90;;;;;;5120907;27;19923;-68
2022/12/14 03:15:10;;;;;;;;;;;-5.90;99.90;;;;;;5121392;27;19923;-68
2022/12/14 03:17:37;;;;;;;;;;;-5.90;99.90;;;;;;5121705;27;20038;-68
2022/12/14 03:20:05;;;;;;;;;;;-5.90;99.90;;;;;;5103865;27;19931;-68
2022/12/14 03:22:33;;;;;;;;;;;-6.00;99.90;;;;;;5122913;27;20190;-68
2022/12/14 03:25:01;;;;;;;;;;;-6.00;99.90;;;;;;5115770;27;20024;-69
2022/12/14 03:27:29;;;;;;;;;;;-6.00;99.90;;;;;;5119395;27;19988;-68
2022/12/14 03:29:57;;;;;;;;;;;-6.00;99.90;;;;;;5121996;27;19920;-68
2022/12/14 03:32:24;;;;;;;;;;;-6.10;99.90;;;;;;5119380;27;19923;-68
2022/12/14 03:35:02;;;;;;;;;;;-6.10;99.90;;;;;;5123084;27;19934;-68
2022/12/14 03:37:38;;;;;;;;;;;-6.10;99.90;;;;;;5118986;27;19928;-68
2022/12/14 03:40:06;;;;;;;;;;;-6.20;99.90;;;;;;5120682;27;20006;-68
2022/12/14 03:42:35;;;;;;;;;;;-6.20;99.90;;;;;;5119129;27;19931;-68
2022/12/14 03:45:10;;;;;;;;;;;-6.20;99.90;;;;;;5121853;27;20317;-68
2022/12/14 03:47:46;;;;;;;;;;;-6.20;99.90;;;;;;5118954;27;21508;-68
2022/12/14 03:50:18;;;;;;;;;;;-6.20;99.90;;;;;;5121320;27;19970;-68
2022/12/14 03:53:08;;;;;;;;;;;-6.20;99.90;;;;;;5121612;27;19934;-68
2022/12/14 03:55:33;;;;;;;;;;;-6.20;99.90;;;;;;5117364;27;20004;-68
2022/12/14 03:58:06;;;;;;;;;;;-6.10;99.90;;;;;;5116658;27;19920;-68
2022/12/14 04:00:35;;;;;;;;;;;-6.20;99.90;;;;;;5124713;27;19919;-68
2022/12/14 04:03:00;;;;;;;;;;;-6.20;99.90;;;;;;5120204;27;20010;-68
2022/12/14 04:05:34;;;;;;;;;;;-6.20;99.90;;;;;;5122364;27;20002;-68
2022/12/14 04:08:03;;;;;;;;;;;-6.20;99.90;;;;;;5123661;27;20026;-68
2022/12/14 04:19:07;;;;;;;;;;;-6.20;99.90;;;;;;5123037;27;19939;-68
2022/12/14 04:21:42;;;;;;;;;;;-6.20;99.90;;;;;;5116010;27;19942;-68
2022/12/14 04:26:58;;;;;;;;;;;-6.20;99.90;;;;;;5121153;27;19931;-69
2022/12/14 04:32:18;;;;;;;;;;;-6.20;99.90;;;;;;5120251;27;19939;-68
2022/12/14 04:34:45;;;;;;;;;;;-6.10;99.90;;;;;;5115768;27;20442;-69
2022/12/14 04:37:14;;;;;;;;;;;-6.20;99.90;;;;;;5122274;27;20326;-68
2022/12/14 04:39:56;;;;;;;;;;;-6.20;99.90;;;;;;5106875;27;19924;-68
2022/12/14 04:42:24;;;;;;;;;;;-6.20;99.90;;;;;;5121163;27;20251;-68
2022/12/14 04:44:52;;;;;;;;;;;-6.20;99.90;;;;;;5122361;27;19920;-68
2022/12/14 04:47:18;;;;;;;;;;;-6.30;99.90;;;;;;5107045;27;19968;-68
2022/12/14 04:49:43;;;;;;;;;;;-6.30;99.90;;;;;;5121294;27;19955;-68
2022/12/14 04:52:21;;;;;;;;;;;-6.30;99.90;;;;;;5095902;27;19932;-68
2022/12/14 04:54:46;;;;;;;;;;;-6.40;99.90;;;;;;5120750;27;19924;-68
2022/12/14 04:57:16;;;;;;;;;;;-6.40;99.90;;;;;;5117786;27;19930;-68
2022/12/14 04:59:42;;;;;;;;;;;-6.40;99.90;;;;;;5119373;27;19926;-68
2022/12/14 05:02:20;;;;;;;;;;;-6.40;99.90;;;;;;5126987;27;19920;-68
2022/12/14 05:05:04;;;;;;;;;;;-6.50;99.90;;;;;;5126502;27;19923;-68
2022/12/14 05:07:29;;;;;;;;;;;-6.50;99.90;;;;;;5123014;27;19923;-68
2022/12/14 05:09:58;;;;;;;;;;;-6.40;99.90;;;;;;5125718;27;20611;-69
2022/12/14 05:12:29;;;;;;;;;;;-6.50;99.90;;;;;;5108052;27;19980;-69
2022/12/14 05:15:12;;;;;;;;;;;-6.50;99.90;;;;;;5125612;27;20361;-68
2022/12/14 05:17:39;;;;;;;;;;;-6.40;99.90;;;;;;5127107;27;19919;-68
2022/12/14 05:20:05;;;;;;;;;;;-6.50;99.90;;;;;;5121428;27;19967;-68
2022/12/14 05:22:30;;;;;;;;;;;-6.40;99.90;;;;;;5118530;27;19930;-68
2022/12/14 05:24:56;;;;;;;;;;;-6.50;99.90;;;;;;5124946;27;19927;-68
2022/12/14 05:27:22;;;;;;;;;;;-6.50;99.90;;;;;;5123477;27;19923;-68
2022/12/14 05:29:47;;;;;;;;;;;-6.50;99.90;;;;;;5125620;27;20020;-69
2022/12/14 05:32:13;;;;;;;;;;;-6.50;99.90;;;;;;5121336;27;19956;-69
2022/12/14 05:34:38;;;;;;;;;;;-6.50;99.90;;;;;;5122943;27;19928;-69
2022/12/14 05:37:04;;;;;;;;;;;-6.50;99.90;;;;;;5125970;27;20396;-68
2022/12/14 05:39:29;;;;;;;;;;;-6.50;99.90;;;;;;5126430;27;19965;-69
2022/12/14 05:41:55;;;;;;;;;;;-6.50;99.90;;;;;;5123209;27;19973;-68
2022/12/14 05:44:20;;;;;;;;;;;-6.50;99.90;;;;;;5122392;27;19926;-68
2022/12/14 05:46:46;;;;;;;;;;;-6.60;99.90;;;;;;5123200;27;19923;-69
2022/12/14 05:49:12;;;;;;;;;;;-6.60;99.90;;;;;;5124623;27;20369;-68
2022/12/14 05:51:37;;;;;;;;;;;-6.70;99.90;;;;;;5121122;27;19928;-68
2022/12/14 05:54:03;;;;;;;;;;;-6.70;99.90;;;;;;5143451;27;19920;-68
2022/12/14 05:56:28;;;;;;;;;;;-6.70;99.90;;;;;;5124348;27;19919;-69
2022/12/14 05:58:54;;;;;;;;;;;-6.70;99.90;;;;;;5126594;27;19972;-69
2022/12/14 06:01:19;;;;;;;;;;;-6.80;99.90;;;;;;5121613;27;19977;-69
2022/12/14 06:03:45;;;;;;;;;;;-6.80;99.90;;;;;;5123319;27;20381;-69
2022/12/14 06:06:11;;;;;;;;;;;-6.80;99.90;;;;;;5117212;27;19985;-68
2022/12/14 06:08:38;;;;;;;;;;;-6.90;99.90;;;;;;5126145;27;19919;-69
2022/12/14 06:11:11;;;;;;;;;;;-7.00;99.90;;;;;;5124166;27;19930;-69
2022/12/14 06:13:38;;;;;;;;;;;-7.00;99.90;;;;;;5123479;27;19941;-69
2022/12/14 06:16:16;;;;;;;;;;;-7.00;99.90;;;;;;5125330;27;19959;-69
2022/12/14 06:18:44;;;;;;;;;;;-7.10;99.90;;;;;;5125229;27;19969;-69
2022/12/14 06:21:09;;;;;;;;;;;-7.10;99.90;;;;;;5118954;27;21750;-69
2022/12/14 06:23:35;;;;;;;;;;;-7.10;99.90;;;;;;5124487;27;20588;-69
2022/12/14 06:26:00;;;;;;;;;;;-7.00;99.90;;;;;;5124939;27;20780;-69
2022/12/14 06:28:26;;;;;;;;;;;-7.00;99.90;;;;;;5118713;27;19927;-69
2022/12/14 06:30:51;;;;;;;;;;;-7.00;99.90;;;;;;5124564;27;20081;-69
2022/12/14 06:33:17;;;;;;;;;;;-7.00;99.90;;;;;;5106210;27;19928;-69
2022/12/14 06:35:46;;;;;;;;;;;-7.00;99.90;;;;;;5119307;27;19930;-69
2022/12/14 06:38:12;;;;;;;;;;;-7.00;99.90;;;;;;5121179;27;19919;-69
2022/12/14 06:40:38;;;;;;;;;;;-7.00;99.90;;;;;;5120538;27;19919;-69
2022/12/14 06:43:03;;;;;;;;;;;-7.00;99.90;;;;;;5123809;27;20099;-69
2022/12/14 06:45:29;;;;;;;;;;;-7.10;99.90;;;;;;5107585;27;19923;-69
2022/12/14 06:47:54;;;;;;;;;;;-7.10;99.90;;;;;;5123088;27;19923;-70
2022/12/14 06:50:20;;;;;;;;;;;-7.10;99.90;;;;;;5122129;27;20414;-69
2022/12/14 06:52:49;;;;;;;;;;;-7.10;99.90;;;;;;5111550;27;20244;-69
2022/12/14 06:55:14;;;;;;;;;;;-7.10;99.90;;;;;;5111389;27;20710;-69
2022/12/14 06:57:40;;;;;;;;;;;-7.10;99.90;;;;;;5122580;27;19928;-69
2022/12/14 07:00:06;;;;;;;;;;;-7.10;99.90;;;;;;5122776;27;19920;-69
2022/12/14 07:02:32;;;;;;;;;;;-7.10;99.90;;;;;;5121905;27;19926;-69
2022/12/14 07:04:57;;;;;;;;;;;-7.20;99.90;;;;;;5103478;27;19920;-69
2022/12/14 07:07:23;;;;;;;;;;;-7.10;99.90;;;;;;5123220;27;20377;-69
2022/12/14 07:09:48;;;;;;;;;;;-7.00;99.90;;;;;;5124406;27;19963;-70
2022/12/14 07:12:14;;;;;;;;;;;-7.00;99.90;;;;;;5104726;27;19929;-69
2022/12/14 07:14:39;;;;;;;;;;;-7.00;99.90;;;;;;5121062;27;20523;-69
2022/12/14 07:17:05;;;;;;;;;;;-7.00;99.90;;;;;;5123401;27;20018;-69
2022/12/14 07:19:30;;;;;;;;;;;-7.00;99.90;;;;;;5102917;27;19923;-69
2022/12/14 07:21:56;;;;;;;;;;;-7.00;99.90;;;;;;5124771;27;19928;-69
2022/12/14 07:24:21;;;;;;;;;;;-7.00;99.90;;;;;;5122428;27;21465;-70
2022/12/14 07:26:47;;;;;;;;;;;-7.00;99.90;;;;;;5106792;27;20491;-69
2022/12/14 07:29:13;;;;;;;;;;;-7.00;99.90;;;;;;5125317;27;20334;-70
2022/12/14 07:31:39;;;;;;;;;;;-7.00;99.90;;;;;;5106676;27;19927;-70
2022/12/14 07:34:04;;;;;;;;;;;-7.10;99.90;;;;;;5123032;27;20368;-69
2022/12/14 07:36:31;;;;;;;;;;;-7.00;99.90;;;;;;5123584;27;19919;-70
2022/12/14 07:38:57;;;;;;;;;;;-7.10;99.90;;;;;;5122505;27;19923;-70
2022/12/14 07:41:29;;;;;;;;;;;-7.10;99.90;;;;;;5106374;27;19941;-69
2022/12/14 07:43:55;;;;;;;;;;;-7.10;99.90;;;;;;5142247;27;19930;-69
2022/12/14 07:46:21;;;;;;;;;;;-7.10;99.90;;;;;;5124375;27;19919;-70
2022/12/14 07:48:48;;;;;;;;;;;-7.10;99.90;;;;;;5117326;27;19924;-70
2022/12/14 07:51:15;;;;;;;;;;;-7.10;99.90;;;;;;5123884;27;19931;-70
2022/12/14 07:53:40;;;;;;;;;;;-7.20;99.90;;;;;;5124236;27;19926;-70
2022/12/14 07:56:08;;;;;;;;;;;-7.20;99.90;;;;;;5121403;27;19935;-70
2022/12/14 07:58:34;;;;;;;;;;;-7.20;99.90;;;;;;5123629;27;20099;-70
2022/12/14 08:01:16;;;;;;;;;;;-7.30;99.90;;;;;;5118599;27;21496;-70
2022/12/14 08:03:44;;;;;;;;;;;-7.30;99.90;;;;;;5123815;27;20133;-70
2022/12/14 08:06:10;;;;;;;;;;;-7.30;99.90;;;;;;5126818;27;19950;-70
2022/12/14 08:08:36;;;;;;;;;;;-7.40;99.90;;;;;;5130371;28;19963;-70
2022/12/14 08:11:02;;;;;;;;;;;-7.40;99.90;;;;;;5129547;28;19962;-70
2022/12/14 08:13:27;;;;;;;;;;;-7.40;99.90;;;;;;5124702;27;20277;-70
2022/12/14 08:15:53;;;;;;;;;;;-7.40;99.90;;;;;;5105794;28;19923;-70
2022/12/14 08:18:18;;;;;;;;;;;-7.40;99.90;;;;;;5105504;28;20377;-70
2022/12/14 08:20:47;;;;;;;;;;;-7.40;99.90;;;;;;5111730;28;19920;-70
2022/12/14 08:23:13;;;;;;;;;;;-7.40;99.90;;;;;;5110460;28;19926;-70
2022/12/14 08:25:38;;;;;;;;;;;-7.40;99.90;;;;;;5122849;28;19924;-70
2022/12/14 08:28:04;;;;;;;;;;;-7.40;99.90;;;;;;5123778;28;19928;-70
2022/12/14 08:30:29;;;;;;;;;;;-7.40;99.90;;;;;;5127592;28;19927;-70
2022/12/14 08:32:55;;;;;;;;;;;-7.30;99.90;;;;;;5118185;27;19931;-70
2022/12/14 08:35:20;;;;;;;;;;;-7.40;99.90;;;;;;5118737;27;19969;-70
2022/12/14 08:37:45;;;;;;;;;;;-7.30;99.90;;;;;;5116770;27;19920;-70
2022/12/14 08:40:11;;;;;;;;;;;-7.30;99.90;;;;;;5143197;27;20382;-70
2022/12/14 08:42:37;;;;;;;;;;;-7.30;99.90;;;;;;5126411;27;19919;-70
2022/12/14 08:45:02;;;;;;;;;;;-7.20;99.90;;;;;;5122175;27;20007;-70
2022/12/14 08:47:28;;;;;;;;;;;-7.20;99.90;;;;;;5126598;27;19926;-70
2022/12/14 08:49:53;;;;;;;;;;;-7.20;99.90;;;;;;5128031;27;20063;-70
2022/12/14 08:52:20;;;;;;;;;;;-7.20;99.90;;;;;;5125561;27;19931;-70
2022/12/14 08:54:45;;;;;;;;;;;-7.10;99.90;;;;;;5128155;27;20037;-69
2022/12/14 08:57:11;;;;;;;;;;;-7.10;99.90;;;;;;5116757;27;20018;-70
2022/12/14 08:59:36;;;;;;;;;;;-7.10;99.90;;;;;;5129234;27;19928;-70
2022/12/14 09:02:02;;;;;;;;;;;-7.00;99.90;;;;;;5128504;27;19959;-70
2022/12/14 09:04:28;;;;;;;;;;;-7.00;99.90;;;;;;5119337;27;19920;-70
2022/12/14 09:06:53;;;;;;;;;;;-7.00;99.90;;;;;;5100238;27;19925;-70
2022/12/14 09:09:19;;;;;;;;;;;-6.90;99.90;;;;;;5124423;27;19924;-70
2022/12/14 09:11:44;;;;;;;;;;;-6.80;99.90;;;;;;5132251;27;20007;-70
2022/12/14 09:14:10;;;;;;;;;;;-6.80;99.90;;;;;;5124928;27;19920;-69
2022/12/14 09:16:36;;;;;;;;;;;-6.70;99.90;;;;;;5118706;27;19927;-70
2022/12/14 09:19:01;;;;;;;;;;;-6.70;99.90;;;;;;5129099;27;19919;-69
2022/12/14 09:21:27;;;;;;;;;;;-6.60;99.90;;;;;;5120700;27;20398;-69
2022/12/14 09:23:53;;;;;;;;;;;-6.50;99.90;;;;;;5117224;27;20008;-69
2022/12/14 09:26:19;;;;;;;;;;;-6.40;99.90;;;;;;5120458;27;20271;-70
2022/12/14 09:28:46;;;;;;;;;;;-6.40;99.90;;;;;;5116475;27;19941;-70
2022/12/14 09:31:13;;;;;;;;;;;-6.30;99.90;;;;;;5124557;27;20082;-69
2022/12/14 09:33:38;;;;;;;;;;;-6.20;99.90;;;;;;5127789;27;19927;-69
2022/12/14 09:36:05;;;;;;;;;;;-6.10;99.90;;;;;;5129203;27;20424;-69
2022/12/14 09:38:32;;;;;;;;;;;-6.10;99.90;;;;;;5129457;27;19915;-69
2022/12/14 09:40:59;;;;;;;;;;;-6.00;99.90;;;;;;5110714;27;19926;-69
2022/12/14 09:43:45;;;;;;;;;;;-5.90;99.90;;;;;;5129284;27;19923;-69
2022/12/14 09:46:29;;;;;;;;;;;-5.80;99.90;;;;;;5130298;27;19931;-70
2022/12/14 09:48:55;;;;;;;;;;;-5.80;99.90;;;;;;5125192;27;19930;-69
2022/12/14 09:51:24;;;;;;;;;;;-5.70;99.90;;;;;;5124770;27;19928;-69
2022/12/14 09:53:53;;;;;;;;;;;-5.60;99.90;;;;;;5126781;27;19923;-69
2022/12/14 09:56:19;;;;;;;;;;;-5.50;99.90;;;;;;5131403;27;19930;-70
2022/12/14 09:59:03;;;;;;;;;;;-5.40;99.90;;;;;;5128529;27;20266;-69
2022/12/14 10:01:37;;;;;;;;;;;-5.30;99.90;;;;;;5131516;27;19926;-69
2022/12/14 10:04:02;;;;;;;;;;;-5.20;99.90;;;;;;5131335;27;19926;-69
2022/12/14 10:06:37;;;;;;;;;;;-5.20;99.90;;;;;;5121694;27;19920;-69
2022/12/14 10:09:10;;;;;;;;;;;-5.10;99.90;;;;;;5131069;27;20010;-69
2022/12/14 10:11:47;;;;;;;;;;;-5.10;99.90;;;;;;5111935;27;19923;-69
2022/12/14 10:14:23;;;;;;;;;;;-4.90;99.90;;;;;;5120793;27;19919;-69
2022/12/14 10:16:48;;;;;;;;;;;-4.90;99.90;;;;;;5128781;27;19927;-69
2022/12/14 10:19:17;;;;;;;;;;;-4.80;99.90;;;;;;5121601;27;20389;-69
2022/12/14 10:21:52;;;;;;;;;;;-4.70;99.90;;;;;;5116397;27;19920;-68
2022/12/14 10:24:22;;;;;;;;;;;-4.70;99.90;;;;;;5127318;27;20378;-69
2022/12/14 10:26:50;;;;;;;;;;;-4.60;99.90;;;;;;5125833;27;19923;-69
2022/12/14 10:29:34;;;;;;;;;;;-4.50;99.90;;;;;;5128403;27;19930;-69
2022/12/14 10:31:59;;;;;;;;;;;-4.60;99.90;;;;;;5120569;27;19927;-68
2022/12/14 10:34:27;;;;;;;;;;;-4.50;99.90;;;;;;5108849;27;19931;-69
2022/12/14 10:36:53;;;;;;;;;;;-4.40;99.90;;;;;;5127850;27;20380;-68
2022/12/14 10:39:34;;;;;;;;;;;-4.30;99.90;;;;;;5129350;27;20274;-69
2022/12/14 10:42:14;;;;;;;;;;;-4.30;99.90;;;;;;5111634;27;20334;-68
2022/12/14 10:44:48;;;;;;;;;;;-4.30;99.90;;;;;;5129472;27;19926;-69
2022/12/14 10:47:14;;;;;;;;;;;-4.20;99.90;;;;;;5126530;27;19972;-69
2022/12/14 10:49:50;;;;;;;;;;;-4.10;99.90;;;;;;5101902;27;19959;-69
2022/12/14 10:52:22;;;;;;;;;;;-4.10;99.90;;;;;;5118886;27;19927;-69
2022/12/14 10:54:53;;;;;;;;;;;-4.00;99.90;;;;;;5119145;27;19930;-69
2022/12/14 10:57:20;;;;;;;;;;;-4.00;99.90;;;;;;5109932;28;20232;-69
2022/12/14 10:59:46;;;;;;;;;;;-4.00;99.90;;;;;;5122682;27;20274;-69
2022/12/14 11:02:16;;;;;;;;;;;-3.90;99.90;;;;;;5124218;27;20297;-69
2022/12/14 11:04:47;;;;;;;;;;;-3.80;99.90;;;;;;5123912;27;19919;-69
2022/12/14 11:07:14;;;;;;;;;;;-3.70;99.90;;;;;;5127718;27;19920;-68
2022/12/14 11:09:40;;;;;;;;;;;-3.70;99.90;;;;;;5122738;27;19920;-68
2022/12/14 11:12:07;;;;;;;;;;;-3.60;99.90;;;;;;5121322;27;19927;-68
2022/12/14 11:14:35;;;;;;;;;;;-3.60;99.90;;;;;;5122238;27;20388;-68
2022/12/14 11:17:00;;;;;;;;;;;-3.50;99.90;;;;;;5128344;27;19919;-68
2022/12/14 11:19:26;;;;;;;;;;;-3.40;99.90;;;;;;5123823;27;19927;-68
2022/12/14 11:22:12;;;;;;;;;;;-3.40;99.90;;;;;;5123543;27;19931;-68
2022/12/14 11:24:46;;;;;;;;;;;-3.30;99.90;;;;;;5117030;27;20253;-68
2022/12/14 11:27:12;;;;;;;;;;;-3.30;99.90;;;;;;5122764;27;19923;-68
2022/12/14 11:29:38;;;;;;;;;;;-3.30;99.90;;;;;;5125969;27;19920;-68
2022/12/14 11:32:04;;;;;;;;;;;-3.20;99.90;;;;;;5109711;27;20038;-68
2022/12/14 11:34:33;;;;;;;;;;;-3.20;99.90;;;;;;5126605;27;19958;-66
2022/12/14 11:37:17;;;;;;;;;;;-3.10;99.90;;;;;;5127070;27;19919;-65
2022/12/14 11:39:47;;;;;;;;;;;-3.10;99.90;;;;;;5125902;27;19927;-66
2022/12/14 11:42:17;;;;;;;;;;;-3.00;99.90;;;;;;5112781;27;19924;-66
2022/12/14 11:44:43;;;;;;;;;;;-3.00;99.90;;;;;;5125270;27;19962;-66
2022/12/14 11:47:17;;;;;;;;;;;-2.90;99.90;;;;;;5128454;27;19980;-66
2022/12/14 11:49:45;;;;;;;;;;;-2.80;99.90;;;;;;5128077;27;20377;-66
2022/12/14 11:52:17;;;;;;;;;;;-2.80;99.90;;;;;;5113213;27;19980;-66
2022/12/14 11:55:02;;;;;;;;;;;-2.70;99.90;;;;;;5124626;27;20301;-65
2022/12/14 11:57:33;;;;;;;;;;;-2.60;99.90;;;;;;5121771;27;19923;-66
2022/12/14 12:00:00;;;;;;;;;;;-2.50;99.90;;;;;;5125853;27;19967;-65
2022/12/14 12:02:31;;;;;;;;;;;-2.50;99.90;;;;;;5115699;28;19927;-65
2022/12/14 12:05:01;;;;;;;;;;;-2.40;99.90;;;;;;5112140;28;19968;-65
2022/12/14 12:07:34;;;;;;;;;;;-2.40;99.90;;;;;;5110151;27;20050;-66
2022/12/14 12:10:02;;;;;;;;;;;-2.40;99.90;;;;;;5109745;27;19998;-65
2022/12/14 12:12:27;;;;;;;;;;;-2.40;99.90;;;;;;5124470;27;19924;-65
2022/12/14 12:14:54;;;;;;;;;;;-2.40;99.90;;;;;;5130399;27;19919;-65
2022/12/14 12:17:37;;;;;;;;;;;-2.40;99.90;;;;;;5131626;27;20276;-66
2022/12/14 12:20:06;;;;;;;;;;;-2.30;99.90;;;;;;5125121;27;19923;-66
2022/12/14 12:22:32;;;;;;;;;;;-2.30;99.90;;;;;;5119709;27;20090;-66
2022/12/14 12:25:02;;;;;;;;;;;-2.30;99.90;;;;;;5122745;27;19954;-66
2022/12/14 12:27:28;;;;;;;;;;;-2.30;99.90;;;;;;5128036;27;19930;-66
2022/12/14 12:29:55;;;;;;;;;;;-2.20;99.90;;;;;;5126714;27;19923;-66
2022/12/14 12:32:22;;;;;;;;;;;-2.20;99.90;;;;;;5127125;27;19947;-66
2022/12/14 12:34:47;;;;;;;;;;;-2.10;99.90;;;;;;5107968;27;20656;-66
2022/12/14 12:37:39;;;;;;;;;;;-2.10;99.90;;;;;;5125159;27;20018;-66
2022/12/14 12:40:08;;;;;;;;;;;-2.10;99.90;;;;;;5103341;27;20312;-66
2022/12/14 12:42:52;;;;;;;;;;;-2.00;99.90;;;;;;5127335;27;19984;-66
2022/12/14 12:45:21;;;;;;;;;;;-2.00;99.90;;;;;;5127656;27;19919;-66
2022/12/14 12:47:51;;;;;;;;;;;-1.90;99.90;;;;;;5123299;27;20050;-66
2022/12/14 12:50:18;;;;;;;;;;;-1.90;99.90;;;;;;5127371;27;19920;-66
2022/12/14 12:53:04;;;;;;;;;;;-1.90;99.90;;;;;;5128922;27;19923;-66
2022/12/14 12:55:33;;;;;;;;;;;-1.90;99.90;;;;;;5127372;27;20418;-66
2022/12/14 12:58:00;;;;;;;;;;;-1.80;99.90;;;;;;5130977;27;19971;-66
2022/12/14 13:00:27;;;;;;;;;;;-1.80;99.90;;;;;;5113871;27;19966;-66
2022/12/14 13:02:52;;;;;;;;;;;-1.70;99.90;;;;;;5116963;27;19919;-66
2022/12/14 13:05:20;;;;;;;;;;;-1.70;99.90;;;;;;5116318;27;20418;-66
2022/12/14 13:07:53;;;;;;;;;;;-1.70;99.90;;;;;;5117045;27;19919;-67
2022/12/14 13:10:24;;;;;;;;;;;-1.60;99.90;;;;;;5095158;27;20019;-67
2022/12/14 13:12:58;;;;;;;;;;;-1.60;99.90;;;;;;5111643;27;19938;-66
2022/12/14 13:15:32;;;;;;;;;;;-1.50;99.90;;;;;;5109878;27;20328;-66
2022/12/14 13:18:03;;;;;;;;;;;-1.50;99.90;;;;;;5138573;27;19949;-66
2022/12/14 13:20:31;;;;;;;;;;;-1.40;99.90;;;;;;5112995;27;20277;-66
2022/12/14 13:22:57;;;;;;;;;;;-1.40;99.90;;;;;;5110185;27;19927;-66
2022/12/14 13:25:27;;;;;;;;;;;-1.40;99.90;;;;;;5113843;27;19923;-66
2022/12/14 13:28:03;;;;;;;;;;;-1.30;99.90;;;;;;5119187;27;20366;-67
2022/12/14 13:30:28;;;;;;;;;;;-1.30;99.90;;;;;;5122971;27;19927;-66
2022/12/14 13:33:12;;;;;;;;;;;-1.30;99.90;;;;;;5109036;27;19923;-66
2022/12/14 13:35:38;;;;;;;;;;;-1.20;99.90;;;;;;5106290;27;20366;-66
2022/12/14 13:38:20;;;;;;;;;;;-1.30;99.90;;;;;;5103725;28;19973;-66
2022/12/14 13:41:15;;;;;;;;;;;-1.30;99.90;;;;;;5103205;27;20273;-67
2022/12/14 13:44:07;;;;;;;;;;;-1.30;99.90;;;;;;5059819;27;20031;-67
2022/12/14 13:46:32;;;;;;;;;;;-1.30;99.90;;;;;;5128188;27;19930;-66
2022/12/14 13:49:01;;;;;;;;;;;-1.30;99.90;;;;;;5107705;27;19945;-68
2022/12/14 13:51:36;;;;;;;;;;;-1.40;99.90;;;;;;5107375;27;19975;-67
2022/12/14 13:54:04;;;;;;;;;;;-1.30;99.90;;;;;;5106432;27;20014;-67
2022/12/14 13:56:30;;;;;;;;;;;-1.40;99.90;;;;;;5117363;27;19923;-67
2022/12/14 13:58:57;;;;;;;;;;;-1.40;99.90;;;;;;5121259;27;19924;-67
2022/12/14 14:01:41;;;;;;;;;;;-1.40;99.90;;;;;;5127905;27;19920;-67
2022/12/14 14:04:10;;;;;;;;;;;-1.40;99.90;;;;;;5118027;27;19973;-67
2022/12/14 14:06:40;;;;;;;;;;;-1.40;99.90;;;;;;5128568;27;20289;-67
2022/12/14 14:09:24;;;;;;;;;;;-1.30;99.90;;;;;;5130935;27;20393;-67
2022/12/14 14:12:00;;;;;;;;;;;-1.30;99.90;;;;;;5115286;27;19953;-67
2022/12/14 14:14:26;;;;;;;;;;;-1.30;99.90;;;;;;5130958;27;19968;-67
2022/12/14 14:17:06;;;;;;;;;;;-1.20;99.90;;;;;;5127464;27;20353;-67
2022/12/14 14:19:35;;;;;;;;;;;-1.20;99.90;;;;;;5124352;27;19981;-68
2022/12/14 14:22:11;;;;;;;;;;;-1.30;99.90;;;;;;5127690;27;19919;-67
2022/12/14 14:24:57;;;;;;;;;;;-1.30;99.90;;;;;;5124156;27;19927;-67
2022/12/14 14:27:26;;;;;;;;;;;-1.40;99.90;;;;;;5112872;27;19923;-67
2022/12/14 14:29:52;;;;;;;;;;;-1.40;99.90;;;;;;5126286;27;20270;-67
2022/12/14 14:32:23;;;;;;;;;;;-1.40;99.90;;;;;;5117173;27;19935;-67
2022/12/14 14:34:49;;;;;;;;;;;-1.40;99.90;;;;;;5102529;27;20353;-67
2022/12/14 14:37:18;;;;;;;;;;;-1.50;99.90;;;;;;5129339;27;19967;-67
2022/12/14 14:39:44;;;;;;;;;;;-1.50;99.90;;;;;;5126691;27;20376;-67
2022/12/14 14:42:29;;;;;;;;;;;-1.50;99.90;;;;;;5119628;27;19935;-67